Time,TemperatureF,DewpointF,PressureIn,WindDirection,WindDirectionDegrees,WindSpeedMPH,WindSpeedGustMPH,Humidity,HourlyPrecipIn,Conditions,Clouds,dailyrainin,SoftwareType,DateUTC
2013-04-24 00:02:00,25.0,18.0,30.06,South,177,13.0,-999.0,73,-99.99,,,-99.99,,2013-04-24 06:02:00,
2013-04-24 00:12:00,25.0,18.0,30.08,South,183,13.0,-999.0,73,-99.99,,,-99.99,,2013-04-24 06:12:00,
2013-04-24 00:21:00,25.0,18.0,30.06,South,181,12.0,-999.0,74,-99.99,,,-99.99,,2013-04-24 06:21:00,
2013-04-24 00:32:00,25.0,18.0,30.07,South,177,13.0,-999.0,72,-99.99,,,-99.99,,2013-04-24 06:32:00,
2013-04-24 00:42:00,26.0,18.0,30.06,South,186,13.0,-999.0,70,-99.99,,,-99.99,,2013-04-24 06:42:00,
2013-04-24 00:51:00,26.0,18.0,30.06,South,184,13.0,-999.0,71,-99.99,,,-99.99,,2013-04-24 06:51:00,
2013-04-24 01:02:00,26.0,17.0,30.08,SSW,196,13.0,-999.0,70,-99.99,,,-99.99,,2013-04-24 07:02:00,
2013-04-24 01:11:00,26.0,18.0,30.06,SSW,195,12.0,-999.0,72,-99.99,,,-99.99,,2013-04-24 07:11:00,
2013-04-24 01:22:00,26.0,18.0,30.06,SSW,194,12.0,-999.0,72,-99.99,,,-99.99,,2013-04-24 07:22:00,
2013-04-24 01:32:00,25.0,17.0,30.05,SSW,208,11.0,-999.0,72,-99.99,,,-99.99,,2013-04-24 07:32:00,
2013-04-24 01:42:00,24.0,17.0,30.05,SSW,209,9.0,-999.0,73,-99.99,,,-99.99,,2013-04-24 07:42:00,
2013-04-24 01:52:00,24.0,17.0,30.06,SW,217,11.0,-999.0,74,-99.99,,,-99.99,,2013-04-24 07:52:00,
2013-04-24 02:02:00,24.0,17.0,30.04,SW,218,11.0,-999.0,74,-99.99,,,-99.99,,2013-04-24 08:02:00,
2013-04-24 02:12:00,25.0,17.0,30.03,SW,220,12.0,-999.0,72,-99.99,,,-99.99,,2013-04-24 08:12:00,
2013-04-24 02:21:00,26.0,17.0,30.06,SW,227,13.0,-999.0,69,-99.99,,,-99.99,,2013-04-24 08:21:00,
2013-04-24 02:33:00,26.0,18.0,30.05,SW,221,11.0,-999.0,71,-99.99,,,-99.99,,2013-04-24 08:33:00,
2013-04-24 02:42:00,26.0,18.0,30.01,SW,223,12.0,-999.0,73,-99.99,,,-99.99,,2013-04-24 08:42:00,
2013-04-24 02:52:00,26.0,19.0,30.02,SW,233,13.0,-999.0,75,-99.99,,,-99.99,,2013-04-24 08:52:00,
2013-04-24 03:02:00,25.0,19.0,30.03,SW,235,12.0,-999.0,77,-99.99,,,-99.99,,2013-04-24 09:02:00,
2013-04-24 03:11:00,26.0,20.0,30.02,WSW,244,14.0,-999.0,78,-99.99,,,-99.99,,2013-04-24 09:11:00,
2013-04-24 03:21:00,26.0,20.0,30.04,WSW,246,17.0,-999.0,79,-99.99,,,-99.99,,2013-04-24 09:21:00,
2013-04-24 03:33:00,26.0,21.0,30.00,SW,233,14.0,-999.0,80,-99.99,,,-99.99,,2013-04-24 09:33:00,
2013-04-24 03:42:00,26.0,21.0,30.01,WSW,250,19.0,-999.0,79,-99.99,,,-99.99,,2013-04-24 09:42:00,
2013-04-24 03:53:00,26.0,21.0,29.99,WSW,244,20.0,-999.0,81,-99.99,,,-99.99,,2013-04-24 09:53:00,
2013-04-24 04:02:00,26.0,21.0,30.01,WSW,242,16.0,-999.0,81,-99.99,,,-99.99,,2013-04-24 10:02:00,
2013-04-24 04:12:00,26.0,21.0,30.02,WSW,237,18.0,-999.0,81,-99.99,,,-99.99,,2013-04-24 10:12:00,
2013-04-24 04:22:00,26.0,21.0,30.01,WSW,241,13.0,-999.0,81,-99.99,,,-99.99,,2013-04-24 10:22:00,
2013-04-24 04:32:00,26.0,21.0,30.01,WSW,238,13.0,-999.0,80,-99.99,,,-99.99,,2013-04-24 10:32:00,
2013-04-24 04:42:00,26.0,21.0,30.01,SW,233,15.0,-999.0,80,-99.99,,,-99.99,,2013-04-24 10:42:00,
2013-04-24 04:52:00,27.0,21.0,30.02,SW,218,16.0,-999.0,78,-99.99,,,-99.99,,2013-04-24 10:52:00,
2013-04-24 05:02:00,27.0,21.0,30.01,SW,222,16.0,-999.0,76,-99.99,,,-99.99,,2013-04-24 11:02:00,
2013-04-24 05:11:00,28.0,20.0,30.01,WSW,238,12.0,-999.0,73,-99.99,,,-99.99,,2013-04-24 11:11:00,
2013-04-24 05:21:00,28.0,20.0,29.99,SW,233,15.0,-999.0,71,-99.99,,,-99.99,,2013-04-24 11:21:00,
2013-04-24 05:32:00,28.0,20.0,30.00,WSW,240,13.0,-999.0,71,-99.99,,,-99.99,,2013-04-24 11:32:00,
2013-04-24 05:42:00,27.0,20.0,30.01,WSW,241,15.0,-999.0,73,-99.99,,,-99.99,,2013-04-24 11:42:00,
2013-04-24 05:52:00,28.0,20.0,30.00,WSW,245,17.0,-999.0,74,-99.99,,,-99.99,,2013-04-24 11:52:00,
2013-04-24 06:02:00,28.0,20.0,30.00,WSW,242,18.0,-999.0,71,-99.99,,,-99.99,,2013-04-24 12:02:00,
2013-04-24 06:11:00,28.0,20.0,30.02,WSW,251,16.0,-999.0,72,-99.99,,,-99.99,,2013-04-24 12:11:00,
2013-04-24 06:22:00,28.0,20.0,30.00,WSW,244,17.0,-999.0,71,-99.99,,,-99.99,,2013-04-24 12:22:00,
2013-04-24 06:32:00,27.0,20.0,30.00,WSW,244,18.0,-999.0,72,-99.99,,,-99.99,,2013-04-24 12:32:00,
2013-04-24 06:42:00,27.0,20.0,29.99,WSW,237,15.0,-999.0,74,-99.99,,,-99.99,,2013-04-24 12:42:00,
2013-04-24 06:51:00,28.0,20.0,30.00,WSW,240,16.0,-999.0,71,-99.99,,,-99.99,,2013-04-24 12:51:00,
2013-04-24 07:01:00,28.0,19.0,30.00,WSW,238,15.0,-999.0,69,-99.99,,,-99.99,,2013-04-24 13:01:00,
2013-04-24 07:12:00,28.0,20.0,29.99,SW,235,16.0,-999.0,69,-99.99,,,-99.99,,2013-04-24 13:12:00,
2013-04-24 07:22:00,29.0,20.0,30.00,SW,233,17.0,-999.0,68,-99.99,,,-99.99,,2013-04-24 13:22:00,
2013-04-24 07:32:00,29.0,20.0,30.00,WSW,242,16.0,-999.0,69,-99.99,,,-99.99,,2013-04-24 13:32:00,
2013-04-24 07:41:00,29.0,20.0,30.00,WSW,242,16.0,-999.0,69,-99.99,,,-99.99,,2013-04-24 13:41:00,
2013-04-24 07:52:00,29.0,20.0,30.00,WSW,242,16.0,-999.0,69,-99.99,,,-99.99,,2013-04-24 13:52:00,
2013-04-24 08:11:00,32.0,22.0,30.01,WSW,252,17.0,-999.0,66,-99.99,,,-99.99,,2013-04-24 14:11:00,
2013-04-24 08:21:00,32.0,21.0,30.01,WSW,250,17.0,-999.0,64,-99.99,,,-99.99,,2013-04-24 14:21:00,
2013-04-24 08:32:00,32.0,21.0,30.01,WSW,250,17.0,-999.0,64,-99.99,,,-99.99,,2013-04-24 14:32:00,
2013-04-24 08:41:00,35.0,22.0,30.03,West,277,25.0,-999.0,59,-99.99,,,-99.99,,2013-04-24 14:41:00,
2013-04-24 08:52:00,35.0,24.0,30.02,West,273,22.0,-999.0,62,-99.99,,,-99.99,,2013-04-24 14:52:00,
2013-04-24 09:01:00,36.0,25.0,30.04,WNW,285,24.0,-999.0,64,-99.99,,,-99.99,,2013-04-24 15:01:00,
2013-04-24 09:11:00,36.0,25.0,30.04,WNW,285,24.0,-999.0,64,-99.99,,,-99.99,,2013-04-24 15:11:00,
2013-04-24 09:21:00,37.0,26.0,30.04,NW,304,27.0,-999.0,63,-99.99,,,-99.99,,2013-04-24 15:21:00,
2013-04-24 09:33:00,38.0,26.0,30.04,WNW,284,31.0,-999.0,62,-99.99,,,-99.99,,2013-04-24 15:33:00,
2013-04-24 09:43:00,38.0,25.0,30.03,WNW,303,31.0,-999.0,61,-99.99,,,-99.99,,2013-04-24 15:43:00,
2013-04-24 09:53:00,38.0,26.0,30.04,WNW,297,36.0,-999.0,61,-99.99,,,-99.99,,2013-04-24 15:53:00,
2013-04-24 10:03:00,38.0,25.0,30.04,WNW,302,32.0,-999.0,60,-99.99,,,-99.99,,2013-04-24 16:03:00,
2013-04-24 10:12:00,38.0,25.0,30.03,NW,307,36.0,-999.0,59,-99.99,,,-99.99,,2013-04-24 16:12:00,
2013-04-24 10:23:00,38.0,26.0,30.05,WNW,299,41.0,-999.0,62,-99.99,,,-99.99,,2013-04-24 16:23:00,
2013-04-24 10:32:00,38.0,26.0,30.05,WNW,299,41.0,-999.0,62,-99.99,,,-99.99,,2013-04-24 16:32:00,
2013-04-24 10:42:00,38.0,27.0,30.05,NW,325,28.0,-999.0,65,-99.99,,,-99.99,,2013-04-24 16:42:00,
2013-04-24 10:53:00,38.0,25.0,30.06,WNW,302,29.0,-999.0,59,-99.99,,,-99.99,,2013-04-24 16:53:00,
2013-04-24 11:02:00,38.0,26.0,30.06,NW,310,33.0,-999.0,62,-99.99,,,-99.99,,2013-04-24 17:02:00,
2013-04-24 11:12:00,38.0,27.0,30.06,NW,311,31.0,-999.0,64,-99.99,,,-99.99,,2013-04-24 17:12:00,
2013-04-24 11:22:00,38.0,26.0,30.06,NW,306,30.0,-999.0,63,-99.99,,,-99.99,,2013-04-24 17:22:00,
2013-04-24 11:32:00,38.0,24.0,30.07,NW,311,24.0,-999.0,58,-99.99,,,-99.99,,2013-04-24 17:32:00,
2013-04-24 11:42:00,39.0,24.0,30.06,WNW,300,30.0,-999.0,54,-99.99,,,-99.99,,2013-04-24 17:42:00,
2013-04-24 11:51:00,39.0,24.0,30.06,NW,309,24.0,-999.0,54,-99.99,,,-99.99,,2013-04-24 17:51:00,
2013-04-24 12:02:00,35.0,28.0,30.08,WNW,298,52.0,-999.0,74,-99.99,,,-99.99,,2013-04-24 18:02:00,
2013-04-24 12:12:00,35.0,26.0,30.07,WNW,302,25.0,-999.0,70,-99.99,,,-99.99,,2013-04-24 18:12:00,
2013-04-24 12:22:00,37.0,26.0,30.09,NW,306,31.0,-999.0,63,-99.99,,,-99.99,,2013-04-24 18:22:00,
2013-04-24 12:33:00,31.0,30.0,30.09,WNW,297,36.0,-999.0,96,-99.99,,,-99.99,,2013-04-24 18:33:00,
2013-04-24 12:42:00,35.0,30.0,30.08,WNW,295,32.0,-999.0,83,-99.99,,,-99.99,,2013-04-24 18:42:00,
2013-04-24 12:52:00,38.0,29.0,30.07,NW,305,32.0,-999.0,70,-99.99,,,-99.99,,2013-04-24 18:52:00,
2013-04-24 13:02:00,32.0,29.0,30.10,NW,311,43.0,-999.0,88,-99.99,,,-99.99,,2013-04-24 19:02:00,
2013-04-24 13:11:00,33.0,32.0,30.08,NW,313,31.0,-999.0,98,-99.99,,,-99.99,,2013-04-24 19:11:00,
2013-04-24 13:22:00,35.0,30.0,30.09,NW,310,32.0,-999.0,83,-99.99,,,-99.99,,2013-04-24 19:22:00,
2013-04-24 13:32:00,38.0,31.0,30.08,NW,312,29.0,-999.0,75,-99.99,,,-99.99,,2013-04-24 19:32:00,
2013-04-24 13:42:00,34.0,30.0,30.08,NW,324,34.0,-999.0,86,-99.99,,,-99.99,,2013-04-24 19:42:00,
2013-04-24 13:52:00,35.0,30.0,30.09,NW,323,34.0,-999.0,85,-99.99,,,-99.99,,2013-04-24 19:52:00,
2013-04-24 14:02:00,35.0,30.0,30.09,NW,323,34.0,-999.0,85,-99.99,,,-99.99,,2013-04-24 20:02:00,
2013-04-24 14:11:00,37.0,27.0,30.09,NW,308,28.0,-999.0,65,-99.99,,,-99.99,,2013-04-24 20:11:00,
2013-04-24 14:22:00,35.0,29.0,30.12,NW,311,38.0,-999.0,78,-99.99,,,-99.99,,2013-04-24 20:22:00,
2013-04-24 14:32:00,34.0,29.0,30.11,WNW,303,32.0,-999.0,79,-99.99,,,-99.99,,2013-04-24 20:32:00,
2013-04-24 14:42:00,36.0,27.0,30.12,WNW,291,33.0,-999.0,71,-99.99,,,-99.99,,2013-04-24 20:42:00,
2013-04-24 14:52:00,36.0,25.0,30.10,WNW,285,27.0,-999.0,64,-99.99,,,-99.99,,2013-04-24 20:52:00,
2013-04-24 15:02:00,38.0,26.0,30.11,WNW,300,21.0,-999.0,61,-99.99,,,-99.99,,2013-04-24 21:02:00,
2013-04-24 15:11:00,37.0,24.0,30.10,NW,304,28.0,-999.0,59,-99.99,,,-99.99,,2013-04-24 21:11:00,
2013-04-24 15:21:00,39.0,22.0,30.10,NW,305,29.0,-999.0,51,-99.99,,,-99.99,,2013-04-24 21:21:00,
2013-04-24 15:33:00,39.0,21.0,30.09,NW,306,30.0,-999.0,47,-99.99,,,-99.99,,2013-04-24 21:33:00,
2013-04-24 15:42:00,40.0,20.0,30.09,NW,314,28.0,-999.0,44,-99.99,,,-99.99,,2013-04-24 21:42:00,
2013-04-24 15:52:00,40.0,22.0,30.09,NW,309,30.0,-999.0,47,-99.99,,,-99.99,,2013-04-24 21:52:00,
2013-04-24 16:03:00,40.0,20.0,30.10,WNW,292,37.0,-999.0,45,-99.99,,,-99.99,,2013-04-24 22:03:00,
2013-04-24 16:12:00,39.0,20.0,30.09,WNW,286,31.0,-999.0,45,-99.99,,,-99.99,,2013-04-24 22:12:00,
2013-04-24 16:22:00,42.0,18.0,30.09,WNW,287,27.0,-999.0,39,-99.99,,,-99.99,,2013-04-24 22:22:00,
2013-04-24 16:33:00,41.0,16.0,30.10,WNW,294,38.0,-999.0,36,-99.99,,,-99.99,,2013-04-24 22:33:00,
2013-04-24 16:42:00,41.0,20.0,30.09,NW,309,23.0,-999.0,43,-99.99,,,-99.99,,2013-04-24 22:42:00,
2013-04-24 16:52:00,41.0,18.0,30.10,WNW,293,21.0,-999.0,39,-99.99,,,-99.99,,2013-04-24 22:52:00,
2013-04-24 17:02:00,42.0,20.0,30.11,NW,313,26.0,-999.0,41,-99.99,,,-99.99,,2013-04-24 23:02:00,
2013-04-24 17:12:00,42.0,18.0,30.09,NW,314,28.0,-999.0,38,-99.99,,,-99.99,,2013-04-24 23:12:00,
2013-04-24 17:21:00,42.0,22.0,30.08,WNW,296,25.0,-999.0,43,-99.99,,,-99.99,,2013-04-24 23:21:00,
2013-04-24 17:32:00,41.0,18.0,30.09,WNW,285,27.0,-999.0,40,-99.99,,,-99.99,,2013-04-24 23:32:00,
2013-04-24 17:42:00,40.0,21.0,30.08,WNW,291,25.0,-999.0,46,-99.99,,,-99.99,,2013-04-24 23:42:00,
2013-04-24 17:51:00,42.0,19.0,30.09,WNW,293,29.0,-999.0,40,-99.99,,,-99.99,,2013-04-24 23:51:00,
2013-04-24 18:02:00,42.0,17.0,30.08,WNW,293,33.0,-999.0,37,-99.99,,,-99.99,,2013-04-25 00:02:00,
2013-04-24 18:12:00,41.0,18.0,30.08,NW,305,29.0,-999.0,38,-99.99,,,-99.99,,2013-04-25 00:12:00,
2013-04-24 18:22:00,42.0,19.0,30.07,NW,321,19.0,-999.0,39,-99.99,,,-99.99,,2013-04-25 00:22:00,
2013-04-24 18:32:00,42.0,19.0,30.08,NW,318,21.0,-999.0,39,-99.99,,,-99.99,,2013-04-25 00:32:00,
2013-04-24 18:42:00,42.0,20.0,30.09,WNW,291,22.0,-999.0,40,-99.99,,,-99.99,,2013-04-25 00:42:00,
2013-04-24 18:52:00,42.0,21.0,30.06,NW,309,16.0,-999.0,42,-99.99,,,-99.99,,2013-04-25 00:52:00,
2013-04-24 19:01:00,41.0,21.0,30.06,WNW,294,29.0,-999.0,43,-99.99,,,-99.99,,2013-04-25 01:01:00,
2013-04-24 19:11:00,41.0,20.0,30.08,WNW,293,23.0,-999.0,44,-99.99,,,-99.99,,2013-04-25 01:11:00,
2013-04-24 19:23:00,40.0,21.0,30.06,WNW,286,16.0,-999.0,46,-99.99,,,-99.99,,2013-04-25 01:23:00,
2013-04-24 19:32:00,40.0,22.0,30.06,WNW,289,14.0,-999.0,47,-99.99,,,-99.99,,2013-04-25 01:32:00,
2013-04-24 19:42:00,40.0,20.0,30.07,NW,306,19.0,-999.0,45,-99.99,,,-99.99,,2013-04-25 01:42:00,
2013-04-24 19:52:00,39.0,20.0,30.08,NW,306,22.0,-999.0,46,-99.99,,,-99.99,,2013-04-25 01:52:00,
2013-04-24 20:02:00,38.0,21.0,30.08,NW,305,15.0,-999.0,50,-99.99,,,-99.99,,2013-04-25 02:02:00,
2013-04-24 20:11:00,37.0,23.0,30.08,WNW,299,13.0,-999.0,55,-99.99,,,-99.99,,2013-04-25 02:11:00,
2013-04-24 20:22:00,36.0,23.0,30.09,WNW,293,11.0,-999.0,59,-99.99,,,-99.99,,2013-04-25 02:22:00,
2013-04-24 20:32:00,35.0,23.0,30.09,WNW,288,11.0,-999.0,60,-99.99,,,-99.99,,2013-04-25 02:32:00,
2013-04-24 20:42:00,35.0,23.0,30.09,WNW,288,11.0,-999.0,60,-99.99,,,-99.99,,2013-04-25 02:42:00,
2013-04-24 20:51:00,35.0,23.0,30.09,WNW,288,11.0,-999.0,60,-99.99,,,-99.99,,2013-04-25 02:51:00,
2013-04-24 21:02:00,33.0,23.0,30.08,WNW,298,9.0,-999.0,65,-99.99,,,-99.99,,2013-04-25 03:02:00,
2013-04-24 21:11:00,33.0,22.0,30.10,WNW,296,8.0,-999.0,64,-99.99,,,-99.99,,2013-04-25 03:11:00,
2013-04-24 21:22:00,33.0,22.0,30.11,WNW,286,9.0,-999.0,63,-99.99,,,-99.99,,2013-04-25 03:22:00,
2013-04-24 21:33:00,34.0,22.0,30.11,WNW,285,6.0,-999.0,63,-99.99,,,-99.99,,2013-04-25 03:33:00,
2013-04-24 21:42:00,34.0,22.0,30.11,WNW,283,10.0,-999.0,62,-99.99,,,-99.99,,2013-04-25 03:42:00,
2013-04-24 21:52:00,35.0,22.0,30.11,West,279,7.0,-999.0,59,-99.99,,,-99.99,,2013-04-25 03:52:00,
2013-04-24 22:03:00,35.0,22.0,30.10,WNW,285,7.0,-999.0,57,-99.99,,,-99.99,,2013-04-25 04:03:00,
2013-04-24 22:12:00,36.0,22.0,30.12,WNW,286,6.0,-999.0,56,-99.99,,,-99.99,,2013-04-25 04:12:00,
2013-04-24 22:23:00,36.0,22.0,30.11,WNW,297,7.0,-999.0,56,-99.99,,,-99.99,,2013-04-25 04:23:00,
2013-04-24 22:32:00,35.0,21.0,30.12,NW,313,7.0,-999.0,56,-99.99,,,-99.99,,2013-04-25 04:32:00,
2013-04-24 22:43:00,31.0,22.0,30.09,SW,232,9.0,-999.0,67,-99.99,,,-99.99,,2013-04-25 04:43:00,
2013-04-24 22:52:00,32.0,22.0,30.10,SW,215,8.0,-999.0,65,-99.99,,,-99.99,,2013-04-25 04:52:00,
2013-04-24 23:02:00,32.0,22.0,30.11,SSW,200,9.0,-999.0,67,-99.99,,,-99.99,,2013-04-25 05:02:00,
2013-04-24 23:12:00,32.0,22.0,30.08,SSW,201,9.0,-999.0,68,-99.99,,,-99.99,,2013-04-25 05:12:00,
2013-04-24 23:21:00,32.0,23.0,30.06,SSW,195,10.0,-999.0,69,-99.99,,,-99.99,,2013-04-25 05:21:00,
2013-04-24 23:32:00,32.0,23.0,30.08,SSW,196,11.0,-999.0,68,-99.99,,,-99.99,,2013-04-25 05:32:00,
2013-04-24 23:42:00,31.0,23.0,30.06,SSW,194,10.0,-999.0,70,-99.99,,,-99.99,,2013-04-25 05:42:00,
2013-04-24 23:51:00,32.0,23.0,30.08,South,187,11.0,-999.0,70,-99.99,,,-99.99,,2013-04-25 05:51:00,